Time;durP1;ratioP1;P1;durP2;ratioP2;P2;SDS_P1;SDS_P2;PMS_P1;PMS_P2;Temp;Humidity;BMP_temperature;BMP_pressure;BME280_temperature;BME280_humidity;BME280_pressure;Samples;Min_cycle;Max_cycle;Signal;HPM_P1;HPM_P2
2023/10/29 00:01:40;;;;;;;4.43;3.78;;;9.10;99.90;;;;;;4999068;28;20259;-83
2023/10/29 00:04:06;;;;;;;6.88;3.97;;;9.10;99.90;;;;;;5001359;28;20039;-85
2023/10/29 00:06:32;;;;;;;5.22;3.83;;;9.10;99.90;;;;;;5000347;28;20140;-84
2023/10/29 00:08:57;;;;;;;4.28;3.88;;;9.00;99.90;;;;;;5003109;28;20030;-84
2023/10/29 00:11:23;;;;;;;10.07;4.18;;;9.00;99.90;;;;;;5003284;28;20030;-85
2023/10/29 00:13:48;;;;;;;7.07;4.35;;;9.00;99.90;;;;;;4994154;28;20037;-85
2023/10/29 00:16:14;;;;;;;5.85;4.30;;;9.00;99.90;;;;;;4993222;28;20672;-85
2023/10/29 00:18:40;;;;;;;6.78;4.03;;;9.00;99.90;;;;;;4992918;28;20152;-84
2023/10/29 00:21:06;;;;;;;5.97;4.43;;;9.00;99.90;;;;;;4990909;28;20021;-83
2023/10/29 00:23:32;;;;;;;5.50;3.90;;;9.10;99.90;;;;;;4999482;28;20018;-83
2023/10/29 00:25:58;;;;;;;5.32;4.28;;;9.00;99.90;;;;;;4993392;28;20029;-84
2023/10/29 00:28:25;;;;;;;8.15;4.38;;;9.00;99.90;;;;;;4999962;28;20041;-84
2023/10/29 00:30:51;;;;;;;6.68;4.13;;;9.00;99.90;;;;;;5000325;28;20091;-85
2023/10/29 00:33:16;;;;;;;6.82;4.30;;;9.00;99.90;;;;;;4998783;28;20495;-84
2023/10/29 00:35:42;;;;;;;4.43;3.80;;;9.00;99.90;;;;;;4987610;28;20471;-83
2023/10/29 00:38:07;;;;;;;4.88;3.90;;;9.00;99.90;;;;;;4995074;28;20375;-83
2023/10/29 00:40:40;;;;;;;7.43;4.35;;;9.00;99.90;;;;;;4984538;28;20018;-84
2023/10/29 00:43:06;;;;;;;6.15;4.40;;;9.00;99.90;;;;;;4982903;28;20085;-84
2023/10/29 00:45:33;;;;;;;4.85;3.75;;;9.00;99.90;;;;;;4996216;28;20065;-84
2023/10/29 00:47:59;;;;;;;6.25;4.18;;;9.00;99.90;;;;;;4993912;28;20034;-83
2023/10/29 00:50:25;;;;;;;6.97;4.40;;;9.00;99.90;;;;;;4986963;28;20105;-83
2023/10/29 00:52:51;;;;;;;4.70;4.20;;;9.00;99.90;;;;;;4988685;28;20242;-83
2023/10/29 00:55:17;;;;;;;9.30;4.65;;;9.00;99.90;;;;;;4991260;28;20593;-83
2023/10/29 00:57:43;;;;;;;6.10;4.43;;;9.00;99.90;;;;;;4990026;28;20024;-84
2023/10/29 01:00:10;;;;;;;8.30;5.60;;;9.00;99.90;;;;;;4988643;28;20022;-83
2023/10/29 01:02:37;;;;;;;6.45;3.83;;;9.00;99.90;;;;;;4996814;28;20037;-83
2023/10/29 01:05:04;;;;;;;11.20;6.55;;;9.00;99.90;;;;;;4992182;28;20466;-83
2023/10/29 01:07:31;;;;;;;6.72;4.70;;;9.00;99.90;;;;;;4991719;28;20030;-83
2023/10/29 01:09:58;;;;;;;6.45;4.25;;;9.00;99.90;;;;;;4989944;28;20398;-83
2023/10/29 01:12:26;;;;;;;7.13;3.70;;;8.90;99.90;;;;;;4986944;28;20080;-83
2023/10/29 01:14:52;;;;;;;8.65;4.60;;;9.00;99.90;;;;;;4995192;28;20478;-83
2023/10/29 01:17:19;;;;;;;6.30;4.50;;;9.00;99.90;;;;;;4979302;28;20030;-83
2023/10/29 01:19:45;;;;;;;6.47;4.13;;;9.00;99.90;;;;;;4990718;28;20046;-84
2023/10/29 01:22:10;;;;;;;5.50;4.10;;;9.00;99.90;;;;;;4979672;28;20030;-82
2023/10/29 01:24:38;;;;;;;5.93;4.43;;;9.00;99.90;;;;;;4976446;28;20151;-83
2023/10/29 01:27:04;;;;;;;5.82;3.58;;;9.00;99.90;;;;;;4976279;28;20034;-82
2023/10/29 01:29:30;;;;;;;6.78;4.47;;;9.00;99.90;;;;;;4985919;28;20033;-83
2023/10/29 01:31:56;;;;;;;6.45;3.90;;;9.00;99.90;;;;;;4978702;28;20043;-82
2023/10/29 01:34:21;;;;;;;4.43;3.85;;;9.00;99.90;;;;;;5001517;28;20030;-85
2023/10/29 01:36:47;;;;;;;7.45;3.83;;;9.00;99.90;;;;;;4998518;28;20023;-85
2023/10/29 01:39:12;;;;;;;7.30;4.00;;;9.00;99.90;;;;;;4990599;28;20125;-84
2023/10/29 01:41:38;;;;;;;5.20;3.70;;;9.00;99.90;;;;;;4988323;28;20490;-85
2023/10/29 01:44:04;;;;;;;5.18;3.80;;;9.00;99.90;;;;;;4986380;28;20030;-83
2023/10/29 01:46:29;;;;;;;4.95;3.70;;;9.00;99.90;;;;;;4983588;28;20073;-83
2023/10/29 01:48:55;;;;;;;3.85;3.45;;;9.00;99.90;;;;;;4983610;28;20364;-83
2023/10/29 01:51:20;;;;;;;7.30;3.65;;;9.10;99.90;;;;;;4991014;28;20518;-84
2023/10/29 01:53:46;;;;;;;6.00;4.15;;;9.00;99.90;;;;;;4979707;28;20034;-83
2023/10/29 01:56:12;;;;;;;7.13;3.53;;;9.00;99.90;;;;;;4990778;28;20025;-83
2023/10/29 01:58:37;;;;;;;5.75;3.53;;;9.00;99.90;;;;;;4983377;28;20062;-84
2023/10/29 02:01:09;;;;;;;8.13;3.78;;;9.10;99.90;;;;;;4983312;28;20060;-82
2023/10/29 02:03:34;;;;;;;6.03;3.33;;;9.00;99.90;;;;;;4984537;28;20449;-83
2023/10/29 02:06:00;;;;;;;4.47;3.55;;;9.10;99.90;;;;;;4992834;28;20018;-81
2023/10/29 02:08:26;;;;;;;4.40;3.17;;;9.10;99.90;;;;;;4981983;28;20092;-83
2023/10/29 02:10:51;;;;;;;5.60;3.35;;;9.10;99.90;;;;;;4986444;28;20113;-85
2023/10/29 02:13:17;;;;;;;3.75;3.20;;;9.10;99.90;;;;;;4982626;28;20126;-83
2023/10/29 02:15:42;;;;;;;5.60;3.10;;;9.10;99.90;;;;;;4980682;28;20462;-83
2023/10/29 02:18:08;;;;;;;4.68;2.95;;;9.10;99.90;;;;;;4977701;28;20078;-83
2023/10/29 02:20:34;;;;;;;4.63;2.65;;;9.10;99.90;;;;;;4982582;28;20023;-83
2023/10/29 02:22:59;;;;;;;5.30;2.65;;;9.10;99.90;;;;;;4980726;28;20172;-84
2023/10/29 02:25:25;;;;;;;4.20;2.95;;;9.20;99.90;;;;;;4982542;28;20035;-84
2023/10/29 02:27:51;;;;;;;4.75;2.88;;;9.20;99.90;;;;;;4979540;28;20038;-85
2023/10/29 02:30:17;;;;;;;6.80;2.83;;;9.20;99.90;;;;;;4981677;28;20022;-84
2023/10/29 02:32:42;;;;;;;4.93;2.58;;;9.20;99.90;;;;;;4983166;28;20129;-85
2023/10/29 02:35:08;;;;;;;5.50;2.72;;;9.20;99.90;;;;;;4979465;28;20027;-85
2023/10/29 02:37:34;;;;;;;3.30;2.80;;;9.20;99.90;;;;;;4984320;28;20026;-85
2023/10/29 02:39:59;;;;;;;4.95;2.85;;;9.30;99.90;;;;;;4979921;28;20499;-86
2023/10/29 02:42:25;;;;;;;4.15;2.63;;;9.30;99.90;;;;;;4985260;28;20046;-85
2023/10/29 02:44:52;;;;;;;5.63;2.55;;;9.30;99.90;;;;;;4985686;28;20709;-87
2023/10/29 02:47:18;;;;;;;2.67;2.38;;;9.30;99.90;;;;;;4983025;28;20523;-86
2023/10/29 02:49:43;;;;;;;3.10;2.65;;;9.30;99.90;;;;;;4980127;28;20293;-85
2023/10/29 02:52:09;;;;;;;4.90;2.72;;;9.30;99.90;;;;;;4976166;28;20026;-84
2023/10/29 02:54:34;;;;;;;3.65;2.47;;;9.30;99.90;;;;;;4987298;28;20205;-85
2023/10/29 02:57:01;;;;;;;6.00;2.70;;;9.40;99.90;;;;;;4988831;28;20022;-85
2023/10/29 02:59:26;;;;;;;3.83;2.70;;;9.30;99.90;;;;;;4980751;28;20036;-84
2023/10/29 03:01:52;;;;;;;4.47;2.20;;;9.40;99.90;;;;;;4987354;28;20110;-85
2023/10/29 03:04:17;;;;;;;3.33;2.25;;;9.40;99.90;;;;;;4984645;28;20126;-85
2023/10/29 03:06:43;;;;;;;3.67;2.53;;;9.40;99.90;;;;;;4995080;28;20026;-85
2023/10/29 03:09:09;;;;;;;4.68;2.55;;;9.40;99.90;;;;;;4988794;28;20033;-86
2023/10/29 03:11:35;;;;;;;5.00;2.40;;;9.50;99.90;;;;;;4993138;28;20033;-85
2023/10/29 03:14:01;;;;;;;3.92;2.38;;;9.50;99.90;;;;;;4991314;28;20068;-86
2023/10/29 03:16:26;;;;;;;2.58;2.38;;;9.50;99.90;;;;;;4992305;28;20034;-85
2023/10/29 03:18:52;;;;;;;8.40;2.55;;;9.60;99.90;;;;;;4989702;28;20023;-85
2023/10/29 03:21:18;;;;;;;3.67;2.30;;;9.50;99.90;;;;;;4989461;28;20604;-86
2023/10/29 03:23:43;;;;;;;6.20;2.35;;;9.50;99.90;;;;;;4988415;28;20018;-85
2023/10/29 03:26:09;;;;;;;4.68;2.42;;;9.60;99.90;;;;;;4995731;28;20106;-85
2023/10/29 03:28:36;;;;;;;2.67;2.25;;;9.60;99.90;;;;;;4982238;28;20019;-83
2023/10/29 03:31:01;;;;;;;4.70;2.80;;;9.60;99.90;;;;;;4995702;28;20018;-87
2023/10/29 03:33:27;;;;;;;3.90;2.45;;;9.60;99.90;;;;;;4981924;28;20045;-87
2023/10/29 03:35:53;;;;;;;4.30;2.50;;;9.60;99.90;;;;;;4986145;28;20475;-88
2023/10/29 03:38:18;;;;;;;4.30;2.65;;;9.60;99.90;;;;;;4982635;28;20076;-88
2023/10/29 03:40:47;;;;;;;4.13;2.55;;;9.60;99.90;;;;;;4987889;28;20109;-88
2023/10/29 03:43:13;;;;;;;2.25;2.05;;;9.60;99.90;;;;;;4986650;28;20034;-88
2023/10/29 03:45:38;;;;;;;6.60;2.80;;;9.60;99.90;;;;;;4980874;28;20061;-89
2023/10/29 03:48:04;;;;;;;2.35;2.15;;;9.60;99.90;;;;;;4994118;28;20046;-89
2023/10/29 03:50:29;;;;;;;3.40;2.42;;;9.60;99.90;;;;;;4990207;28;20026;-88
2023/10/29 03:52:55;;;;;;;4.50;2.45;;;9.60;99.90;;;;;;4989292;28;20036;-87
2023/10/29 03:55:20;;;;;;;2.42;2.13;;;9.60;99.90;;;;;;4987743;28;20220;-87
2023/10/29 03:57:46;;;;;;;2.47;1.85;;;9.60;99.90;;;;;;4988223;28;20027;-89
2023/10/29 04:00:12;;;;;;;3.60;2.05;;;9.60;99.90;;;;;;4989789;28;20508;-90
2023/10/29 04:02:38;;;;;;;2.80;2.22;;;9.60;99.90;;;;;;4989881;28;20113;-88
2023/10/29 04:05:03;;;;;;;4.13;2.00;;;9.60;99.90;;;;;;4992781;28;20529;-88
2023/10/29 04:07:29;;;;;;;4.75;2.15;;;9.60;99.90;;;;;;4985587;28;20087;-88
2023/10/29 04:09:55;;;;;;;1.98;1.77;;;9.60;99.90;;;;;;4994958;28;20377;-88
2023/10/29 04:12:20;;;;;;;2.35;1.88;;;9.60;99.90;;;;;;4989182;28;20030;-87
2023/10/29 04:14:46;;;;;;;2.45;1.90;;;9.60;99.90;;;;;;4989495;28;20034;-89
2023/10/29 04:17:12;;;;;;;2.95;2.45;;;9.60;99.90;;;;;;4988861;28;20032;-89
2023/10/29 04:19:37;;;;;;;2.83;1.92;;;9.60;99.90;;;;;;4984591;28;20025;-88
2023/10/29 04:22:03;;;;;;;2.25;1.92;;;9.60;99.90;;;;;;4993654;28;20552;-89
2023/10/29 04:24:29;;;;;;;3.30;1.77;;;9.70;99.90;;;;;;4985140;28;20300;-87
2023/10/29 04:26:55;;;;;;;3.05;2.00;;;9.70;99.90;;;;;;4984723;28;20077;-88
2023/10/29 04:29:21;;;;;;;1.75;1.65;;;9.70;99.90;;;;;;4998743;28;20084;-86
2023/10/29 04:31:47;;;;;;;2.33;2.10;;;9.70;99.90;;;;;;4990815;28;20037;-87
2023/10/29 04:34:13;;;;;;;2.95;1.95;;;9.70;99.90;;;;;;4992539;28;20557;-86
2023/10/29 04:36:41;;;;;;;2.58;1.90;;;9.70;99.90;;;;;;4993115;28;20022;-86
2023/10/29 04:39:07;;;;;;;2.15;1.70;;;9.70;99.90;;;;;;4989846;28;20065;-87
2023/10/29 04:41:33;;;;;;;3.38;2.10;;;9.70;99.90;;;;;;4985535;28;20058;-87
2023/10/29 04:43:58;;;;;;;2.80;1.70;;;9.70;99.90;;;;;;4989038;28;20026;-87
2023/10/29 04:46:24;;;;;;;2.58;1.65;;;9.80;99.90;;;;;;4995794;28;20046;-86
2023/10/29 04:48:49;;;;;;;4.28;2.30;;;9.80;99.90;;;;;;4989652;28;20049;-85
2023/10/29 04:51:15;;;;;;;1.90;1.77;;;9.80;99.90;;;;;;4990409;28;20065;-86
2023/10/29 04:53:40;;;;;;;2.47;2.05;;;9.80;99.90;;;;;;4985840;28;20030;-88
2023/10/29 04:56:06;;;;;;;4.70;1.90;;;9.90;99.90;;;;;;4990122;28;20021;-87
2023/10/29 04:58:32;;;;;;;5.75;2.92;;;9.90;99.90;;;;;;4988573;28;20033;-87
2023/10/29 05:00:58;;;;;;;2.60;2.20;;;9.90;99.90;;;;;;4992236;28;20068;-88
2023/10/29 05:03:24;;;;;;;2.70;2.15;;;9.90;99.90;;;;;;4992503;28;20060;-87
2023/10/29 05:05:49;;;;;;;2.63;1.90;;;9.90;99.90;;;;;;4988046;28;20080;-87
2023/10/29 05:08:15;;;;;;;2.85;2.00;;;9.90;99.90;;;;;;4987183;28;20038;-86
2023/10/29 05:10:46;;;;;;;2.20;2.00;;;9.90;99.90;;;;;;4988356;28;20038;-87
2023/10/29 05:13:12;;;;;;;2.88;2.35;;;10.00;99.90;;;;;;4988014;28;20117;-87
2023/10/29 05:15:38;;;;;;;3.22;2.30;;;10.00;99.90;;;;;;4994240;28;20172;-85
2023/10/29 05:18:03;;;;;;;4.68;2.78;;;10.00;99.90;;;;;;4992814;28;20014;-87
2023/10/29 05:20:29;;;;;;;2.28;2.08;;;10.00;99.90;;;;;;4989667;28;20029;-87
2023/10/29 05:22:54;;;;;;;3.20;2.25;;;10.00;99.90;;;;;;4988495;28;20033;-86
2023/10/29 05:25:20;;;;;;;3.53;2.40;;;10.00;99.90;;;;;;4989530;28;20056;-85
2023/10/29 05:27:50;;;;;;;2.58;2.20;;;10.00;99.90;;;;;;4992483;28;20490;-86
2023/10/29 05:30:16;;;;;;;2.75;2.40;;;10.00;99.90;;;;;;4992009;28;20076;-88
2023/10/29 05:32:42;;;;;;;3.05;2.22;;;10.00;99.90;;;;;;4985874;28;20030;-86
2023/10/29 05:35:08;;;;;;;2.60;2.40;;;10.10;99.90;;;;;;4988706;28;20091;-87
2023/10/29 05:37:33;;;;;;;2.47;2.28;;;10.10;99.90;;;;;;4995767;28;20096;-86
2023/10/29 05:39:59;;;;;;;3.05;2.28;;;10.00;99.90;;;;;;4994134;28;20018;-86
2023/10/29 05:42:25;;;;;;;3.25;2.58;;;10.10;99.90;;;;;;4998920;28;20025;-85
2023/10/29 05:44:51;;;;;;;3.90;2.05;;;10.10;99.90;;;;;;4991734;28;20030;-85
2023/10/29 05:47:16;;;;;;;2.08;1.92;;;10.10;99.90;;;;;;4991881;28;20366;-87
2023/10/29 05:49:42;;;;;;;2.70;2.38;;;10.10;99.90;;;;;;4989457;28;20022;-86
2023/10/29 05:52:07;;;;;;;2.15;1.92;;;10.10;99.90;;;;;;4986132;28;20481;-85
2023/10/29 05:54:33;;;;;;;3.20;2.10;;;10.10;99.90;;;;;;4990557;28;20026;-86
2023/10/29 05:56:58;;;;;;;2.95;2.35;;;10.10;99.90;;;;;;4988276;28;20454;-87
2023/10/29 05:59:24;;;;;;;3.08;2.50;;;10.10;99.90;;;;;;4993350;28;20014;-87
2023/10/29 06:01:49;;;;;;;2.67;2.17;;;10.10;99.90;;;;;;4993616;28;20467;-86
2023/10/29 06:04:15;;;;;;;3.72;2.25;;;10.10;99.90;;;;;;4995405;28;20034;-86
2023/10/29 06:06:40;;;;;;;3.17;1.95;;;10.10;99.90;;;;;;4986892;28;20029;-86
2023/10/29 06:09:06;;;;;;;1.98;1.73;;;10.20;99.90;;;;;;4987740;28;20033;-86
2023/10/29 06:11:31;;;;;;;3.70;2.20;;;10.20;99.90;;;;;;4991923;28;20052;-86
2023/10/29 06:13:57;;;;;;;2.85;2.22;;;10.10;99.90;;;;;;4997484;28;20052;-86
2023/10/29 06:16:24;;;;;;;2.15;1.83;;;10.20;99.90;;;;;;4990941;28;20256;-86
2023/10/29 06:18:50;;;;;;;5.05;1.90;;;10.20;99.90;;;;;;4999007;28;20383;-86
2023/10/29 06:21:18;;;;;;;3.20;1.63;;;10.20;99.90;;;;;;4987359;28;20033;-85
2023/10/29 06:23:44;;;;;;;3.00;1.85;;;10.20;99.90;;;;;;4994234;28;20015;-87
2023/10/29 06:26:09;;;;;;;3.00;1.88;;;10.20;99.90;;;;;;4991885;28;20555;-86
2023/10/29 06:28:35;;;;;;;2.83;2.00;;;10.20;99.90;;;;;;4982856;28;20438;-86
2023/10/29 06:31:00;;;;;;;2.67;1.75;;;10.20;99.90;;;;;;4989130;28;20022;-86
2023/10/29 06:33:26;;;;;;;2.78;1.77;;;10.30;99.90;;;;;;4997676;28;20042;-86
2023/10/29 06:35:51;;;;;;;2.70;1.88;;;10.30;99.90;;;;;;4991781;28;20023;-87
2023/10/29 06:38:17;;;;;;;2.92;1.65;;;10.30;99.90;;;;;;4999645;28;20034;-87
2023/10/29 06:40:42;;;;;;;2.15;1.60;;;10.30;99.90;;;;;;4987177;28;20043;-86
2023/10/29 06:43:08;;;;;;;2.33;1.05;;;10.30;99.90;;;;;;4996594;28;20032;-87
2023/10/29 06:45:35;;;;;;;1.27;1.13;;;10.30;99.90;;;;;;4990188;28;20042;-86
2023/10/29 06:48:00;;;;;;;2.22;1.42;;;10.40;99.90;;;;;;4985977;28;20093;-86
2023/10/29 06:50:26;;;;;;;3.65;1.70;;;10.40;99.90;;;;;;4989483;28;20053;-87
2023/10/29 06:52:51;;;;;;;3.85;1.63;;;10.40;99.90;;;;;;4998219;28;20058;-85
2023/10/29 06:55:17;;;;;;;4.22;1.40;;;10.40;99.90;;;;;;4994934;28;20372;-87
2023/10/29 06:57:42;;;;;;;4.63;1.35;;;10.40;99.90;;;;;;4990049;28;20030;-87
2023/10/29 07:00:08;;;;;;;1.80;1.50;;;10.50;99.90;;;;;;4998465;28;20030;-86
2023/10/29 07:02:33;;;;;;;1.88;1.40;;;10.50;99.90;;;;;;4993341;28;20490;-87
2023/10/29 07:04:59;;;;;;;3.97;1.48;;;10.50;99.90;;;;;;4987569;28;20111;-86
2023/10/29 07:07:28;;;;;;;2.22;1.75;;;10.50;99.90;;;;;;4986867;28;20119;-86
2023/10/29 07:09:54;;;;;;;1.70;1.17;;;10.50;99.90;;;;;;4988116;28;20092;-87
2023/10/29 07:12:20;;;;;;;4.00;1.40;;;10.50;99.90;;;;;;5005518;28;20566;-86
2023/10/29 07:14:45;;;;;;;1.83;1.60;;;10.50;99.90;;;;;;4997120;28;20033;-87
2023/10/29 07:17:11;;;;;;;2.25;1.77;;;10.60;99.90;;;;;;5005455;28;20032;-86
2023/10/29 07:19:36;;;;;;;2.05;1.60;;;10.60;99.90;;;;;;4993806;28;20037;-86
2023/10/29 07:22:02;;;;;;;2.17;2.00;;;10.60;99.90;;;;;;4994032;28;20354;-86
2023/10/29 07:24:27;;;;;;;3.80;2.13;;;10.70;99.90;;;;;;4993768;28;20038;-87
2023/10/29 07:26:53;;;;;;;4.35;3.28;;;10.70;99.90;;;;;;4991673;28;20038;-86
2023/10/29 07:29:19;;;;;;;4.35;3.38;;;10.70;99.90;;;;;;5000876;28;20053;-86
2023/10/29 07:31:44;;;;;;;2.17;1.50;;;10.70;99.90;;;;;;4991395;28;20057;-86
2023/10/29 07:34:10;;;;;;;1.60;1.45;;;10.70;99.90;;;;;;4992858;28;20053;-87
2023/10/29 07:36:35;;;;;;;2.28;1.40;;;10.80;99.90;;;;;;4998445;28;20042;-86
2023/10/29 07:39:01;;;;;;;1.38;1.08;;;10.80;99.90;;;;;;4990937;28;20037;-85
2023/10/29 07:41:27;;;;;;;3.90;1.50;;;10.80;99.90;;;;;;4997599;28;20029;-85
2023/10/29 07:43:52;;;;;;;3.58;1.80;;;10.80;99.90;;;;;;4993830;28;20102;-85
2023/10/29 07:46:18;;;;;;;3.70;2.28;;;10.80;99.90;;;;;;5001725;28;20469;-85
2023/10/29 07:48:43;;;;;;;2.88;1.85;;;10.80;99.90;;;;;;4993859;28;20029;-85
2023/10/29 07:51:10;;;;;;;3.03;1.40;;;10.90;99.90;;;;;;4990505;28;20027;-86
2023/10/29 07:53:36;;;;;;;2.30;0.95;;;10.90;99.90;;;;;;4992022;28;20443;-85
2023/10/29 07:56:09;;;;;;;2.10;1.35;;;10.90;99.90;;;;;;4994259;28;20050;-84
2023/10/29 07:58:36;;;;;;;2.55;1.20;;;11.00;99.90;;;;;;4986643;28;20049;-85
2023/10/29 08:01:02;;;;;;;3.10;1.00;;;11.00;99.90;;;;;;4996021;28;20026;-85
2023/10/29 08:03:27;;;;;;;1.83;0.85;;;11.00;99.90;;;;;;4996348;28;20026;-85
2023/10/29 08:05:53;;;;;;;3.13;1.35;;;11.00;99.90;;;;;;4997202;28;20025;-86
2023/10/29 08:08:19;;;;;;;1.08;0.98;;;11.10;99.90;;;;;;4991897;28;20041;-86
2023/10/29 08:10:45;;;;;;;4.38;1.10;;;11.10;99.90;;;;;;4992095;28;20022;-84
2023/10/29 08:13:10;;;;;;;1.40;1.10;;;11.00;99.90;;;;;;4996771;28;20049;-85
2023/10/29 08:15:39;;;;;;;1.10;0.80;;;11.10;99.90;;;;;;4996628;28;20407;-83
2023/10/29 08:18:05;;;;;;;3.10;1.08;;;11.10;99.90;;;;;;4990969;28;20026;-85
2023/10/29 08:20:31;;;;;;;1.95;1.23;;;11.10;99.90;;;;;;4994346;28;20605;-85
2023/10/29 08:22:57;;;;;;;2.15;1.20;;;11.10;99.90;;;;;;4989324;28;20022;-86
2023/10/29 08:25:22;;;;;;;1.52;0.90;;;11.10;99.90;;;;;;4992807;28;20038;-85
2023/10/29 08:27:48;;;;;;;4.43;1.10;;;11.10;99.90;;;;;;4991460;28;20076;-84
2023/10/29 08:30:13;;;;;;;1.77;1.30;;;11.10;99.90;;;;;;4988603;28;20034;-84
2023/10/29 08:32:39;;;;;;;2.95;1.27;;;11.10;99.90;;;;;;4994546;28;20038;-84
2023/10/29 08:35:08;;;;;;;1.70;1.20;;;11.20;99.90;;;;;;4993894;28;20026;-84
2023/10/29 08:37:37;;;;;;;1.63;1.05;;;11.20;99.90;;;;;;4989523;28;20046;-84
2023/10/29 08:40:04;;;;;;;1.67;1.25;;;11.20;99.90;;;;;;4995570;28;20019;-84
2023/10/29 08:42:30;;;;;;;2.58;1.10;;;11.30;99.90;;;;;;4992762;28;20026;-84
2023/10/29 08:44:56;;;;;;;2.42;1.00;;;11.40;99.90;;;;;;4988374;28;20105;-83
2023/10/29 08:47:22;;;;;;;1.88;1.30;;;11.50;99.90;;;;;;5004859;28;20022;-84
2023/10/29 08:49:48;;;;;;;2.88;1.27;;;11.60;99.90;;;;;;4994853;28;20021;-84
2023/10/29 08:52:14;;;;;;;2.20;1.08;;;11.60;99.90;;;;;;4992172;28;20176;-83
2023/10/29 08:54:40;;;;;;;2.72;0.93;;;11.70;99.90;;;;;;4990403;28;20114;-84
2023/10/29 08:57:05;;;;;;;3.13;2.15;;;11.70;99.90;;;;;;4988198;28;20415;-84
2023/10/29 08:59:31;;;;;;;2.03;1.48;;;11.80;99.90;;;;;;4989603;28;20022;-84
2023/10/29 09:01:57;;;;;;;2.20;1.30;;;11.80;99.90;;;;;;4996532;28;20113;-84
2023/10/29 09:04:23;;;;;;;4.45;1.17;;;11.90;99.90;;;;;;5002723;28;20065;-84
2023/10/29 09:06:53;;;;;;;2.78;1.10;;;12.00;99.90;;;;;;5002693;28;20108;-84
2023/10/29 09:09:18;;;;;;;1.88;1.10;;;12.00;99.90;;;;;;4995637;28;20653;-83
2023/10/29 09:11:46;;;;;;;2.00;0.98;;;12.10;99.90;;;;;;4996733;28;20110;-82
2023/10/29 09:14:13;;;;;;;1.10;1.00;;;12.20;99.90;;;;;;4988361;28;20026;-83
2023/10/29 09:16:39;;;;;;;4.47;0.98;;;12.20;99.90;;;;;;4989923;28;20027;-85
2023/10/29 09:19:05;;;;;;;2.05;1.10;;;12.30;99.90;;;;;;4986281;28;20026;-83
2023/10/29 09:21:30;;;;;;;1.67;0.63;;;12.40;99.90;;;;;;4994830;28;20033;-85
2023/10/29 09:23:59;;;;;;;2.25;1.23;;;12.40;99.90;;;;;;5006342;28;20026;-84
2023/10/29 09:26:24;;;;;;;2.17;1.10;;;12.50;99.90;;;;;;4997617;28;20049;-83
2023/10/29 09:28:50;;;;;;;2.88;1.00;;;12.50;99.90;;;;;;4991697;28;20458;-83
2023/10/29 09:31:18;;;;;;;4.38;1.50;;;12.60;99.90;;;;;;4991611;28;20926;-83
2023/10/29 09:33:44;;;;;;;1.63;0.90;;;12.60;99.90;;;;;;4986229;28;20026;-82
2023/10/29 09:36:13;;;;;;;1.98;0.90;;;12.60;99.90;;;;;;4988322;28;20074;-84
2023/10/29 09:38:39;;;;;;;1.25;0.80;;;12.60;99.90;;;;;;4988338;28;20022;-83
2023/10/29 09:41:07;;;;;;;1.20;0.90;;;12.60;99.90;;;;;;4994280;28;20335;-83
2023/10/29 09:43:42;;;;;;;1.67;1.08;;;12.70;99.90;;;;;;4990551;28;20018;-83
2023/10/29 09:46:10;;;;;;;2.97;1.00;;;12.80;99.90;;;;;;4988557;28;20897;-83
2023/10/29 09:48:42;;;;;;;6.85;1.23;;;12.80;99.90;;;;;;4995527;28;20105;-84
2023/10/29 09:51:07;;;;;;;0.80;0.70;;;12.90;99.90;;;;;;4993774;28;20490;-84
2023/10/29 09:53:37;;;;;;;1.73;0.98;;;13.10;99.90;;;;;;4997159;28;20030;-84
2023/10/29 09:56:07;;;;;;;1.13;0.73;;;13.10;99.90;;;;;;4989157;28;20026;-84
2023/10/29 09:58:34;;;;;;;2.20;0.93;;;13.00;99.90;;;;;;4994581;28;20029;-85
2023/10/29 10:01:01;;;;;;;2.17;0.80;;;13.00;99.90;;;;;;4988431;28;20025;-85
2023/10/29 10:03:27;;;;;;;1.60;0.80;;;13.00;99.90;;;;;;4992916;28;20100;-86
2023/10/29 10:05:54;;;;;;;2.25;0.93;;;13.00;99.90;;;;;;5012868;28;20037;-85
2023/10/29 10:08:27;;;;;;;1.65;0.68;;;13.00;99.90;;;;;;5013407;28;20030;-84
2023/10/29 10:10:53;;;;;;;1.55;0.90;;;13.00;99.90;;;;;;4999154;28;20104;-85
2023/10/29 10:13:36;;;;;;;1.83;0.80;;;13.10;99.90;;;;;;4999493;28;20022;-85
2023/10/29 10:16:10;;;;;;;6.65;0.88;;;13.10;99.90;;;;;;4998384;28;20050;-85
2023/10/29 10:18:57;;;;;;;2.15;0.80;;;13.10;99.90;;;;;;4992107;28;20041;-85
2023/10/29 10:21:24;;;;;;;1.35;0.70;;;13.20;99.90;;;;;;4992914;28;20106;-85
2023/10/29 10:23:56;;;;;;;0.82;0.65;;;13.30;99.90;;;;;;4994225;28;20438;-85
2023/10/29 10:26:35;;;;;;;1.20;0.80;;;13.30;99.90;;;;;;4988394;28;20018;-85
2023/10/29 10:29:02;;;;;;;1.50;1.00;;;13.40;99.90;;;;;;5001082;28;20027;-86
2023/10/29 10:31:31;;;;;;;2.92;0.77;;;13.40;99.90;;;;;;5006731;28;20019;-83
2023/10/29 10:34:17;;;;;;;1.20;0.50;;;13.40;99.90;;;;;;4996874;28;20109;-85
2023/10/29 10:36:43;;;;;;;;;;;13.50;99.90;;;;;;4997033;28;20029;-84
2023/10/29 10:39:09;;;;;;;1.17;0.73;;;13.60;99.90;;;;;;4993648;28;19913;-84
2023/10/29 10:41:53;;;;;;;2.17;1.38;;;13.60;99.90;;;;;;4994402;28;20046;-85
2023/10/29 10:44:20;;;;;;;1.05;0.60;;;13.60;99.90;;;;;;4992188;28;20038;-85
2023/10/29 10:46:48;;;;;;;1.40;0.70;;;13.70;99.90;;;;;;4992620;28;20022;-85
2023/10/29 10:49:15;;;;;;;2.60;1.00;;;13.70;99.90;;;;;;4991939;28;20033;-84
2023/10/29 10:51:41;;;;;;;4.47;0.88;;;13.70;99.90;;;;;;4997109;28;20340;-84
2023/10/29 10:54:07;;;;;;;1.38;0.50;;;13.70;99.90;;;;;;4995927;28;20138;-85
2023/10/29 10:56:37;;;;;;;0.75;0.65;;;13.70;99.90;;;;;;5002362;28;20026;-85
2023/10/29 10:59:07;;;;;;;2.15;0.65;;;13.80;99.90;;;;;;4992801;28;20022;-82
2023/10/29 11:01:35;;;;;;;1.15;0.70;;;13.80;99.90;;;;;;4987041;28;20022;-85
2023/10/29 11:04:03;;;;;;;2.78;0.68;;;13.80;99.90;;;;;;4987819;28;20026;-82
2023/10/29 11:06:31;;;;;;;0.75;0.35;;;13.90;99.90;;;;;;4990602;28;20030;-85
2023/10/29 11:09:01;;;;;;;0.73;0.45;;;13.90;99.90;;;;;;4989304;28;20029;-84
2023/10/29 11:11:34;;;;;;;0.57;0.52;;;13.90;99.90;;;;;;4986634;28;20475;-83
2023/10/29 11:14:13;;;;;;;2.00;0.70;;;14.00;99.90;;;;;;4988899;28;20030;-82
2023/10/29 11:16:50;;;;;;;3.17;0.70;;;14.00;99.90;;;;;;4989551;28;20022;-82
2023/10/29 11:19:43;;;;;;;2.28;0.70;;;14.00;99.90;;;;;;4997236;28;20030;-80
2023/10/29 11:22:22;;;;;;;4.68;1.00;;;14.00;99.90;;;;;;5000865;28;20018;-82
2023/10/29 11:25:11;;;;;;;2.38;0.85;;;14.10;99.90;;;;;;4992301;28;20029;-82
2023/10/29 11:27:43;;;;;;;2.40;0.70;;;14.10;99.90;;;;;;4992515;28;20110;-83
2023/10/29 11:30:14;;;;;;;1.42;0.60;;;14.10;99.90;;;;;;4993049;28;20069;-83
2023/10/29 11:32:41;;;;;;;1.00;0.55;;;14.20;99.90;;;;;;4989840;28;20027;-83
2023/10/29 11:35:20;;;;;;;0.93;0.50;;;14.30;99.90;;;;;;4992819;28;20022;-83
2023/10/29 11:37:50;;;;;;;1.40;0.60;;;14.40;99.90;;;;;;4987940;28;20026;-83
2023/10/29 11:40:25;;;;;;;2.38;0.47;;;14.40;99.90;;;;;;4989656;28;20036;-83
2023/10/29 11:42:51;;;;;;;3.88;0.63;;;14.50;99.90;;;;;;4990842;28;20034;-84
2023/10/29 11:45:27;;;;;;;2.15;0.60;;;14.50;99.90;;;;;;4982535;28;20022;-83
2023/10/29 11:48:11;;;;;;;3.35;0.60;;;14.50;99.90;;;;;;4982041;28;20026;-82
2023/10/29 11:50:37;;;;;;;1.02;0.65;;;14.60;99.90;;;;;;4981673;28;20031;-83
2023/10/29 11:53:03;;;;;;;0.73;0.40;;;14.50;99.90;;;;;;4988226;28;20371;-81
2023/10/29 11:55:34;;;;;;;2.17;1.08;;;14.60;99.90;;;;;;4989755;28;20110;-81
2023/10/29 11:58:00;;;;;;;3.58;0.80;;;14.50;99.90;;;;;;4984624;28;20037;-81
2023/10/29 12:00:40;;;;;;;1.10;0.60;;;14.50;99.90;;;;;;4986385;28;20046;-82
2023/10/29 12:03:05;;;;;;;0.93;0.30;;;14.60;99.90;;;;;;4988112;28;20029;-82
2023/10/29 12:05:31;;;;;;;2.53;1.00;;;14.60;99.90;;;;;;4985488;28;20022;-82
2023/10/29 12:08:00;;;;;;;2.80;0.75;;;14.60;99.90;;;;;;4984552;28;20030;-82
2023/10/29 12:10:26;;;;;;;3.10;0.50;;;14.70;99.90;;;;;;4979897;28;20062;-80
2023/10/29 12:12:53;;;;;;;3.03;0.88;;;14.60;99.90;;;;;;4978910;28;20081;-81
2023/10/29 12:15:19;;;;;;;4.80;0.82;;;14.60;99.90;;;;;;4975575;28;20034;-82
2023/10/29 12:17:45;;;;;;;2.40;0.75;;;14.50;99.90;;;;;;4985673;28;20045;-81
2023/10/29 12:20:22;;;;;;;2.28;0.80;;;14.50;99.90;;;;;;4986513;28;20401;-81
2023/10/29 12:22:56;;;;;;;2.80;1.05;;;14.40;99.90;;;;;;4978118;28;20487;-82
2023/10/29 12:25:22;;;;;;;1.50;0.90;;;14.30;99.90;;;;;;4988222;28;20026;-81
2023/10/29 12:27:49;;;;;;;3.13;0.55;;;14.40;99.90;;;;;;4986027;28;20049;-81
2023/10/29 12:30:37;;;;;;;2.22;0.82;;;14.40;99.90;;;;;;4981407;28;20113;-82
2023/10/29 12:33:20;;;;;;;2.05;0.93;;;14.40;99.90;;;;;;4979359;28;20037;-81
2023/10/29 12:35:50;;;;;;;1.08;0.88;;;14.40;99.90;;;;;;4984802;28;20455;-82
2023/10/29 12:38:16;;;;;;;0.90;0.80;;;14.40;99.90;;;;;;4979376;28;20092;-81
2023/10/29 12:41:16;;;;;;;5.50;1.45;;;14.40;99.90;;;;;;4977901;28;20014;-82
2023/10/29 12:43:53;;;;;;;2.70;1.27;;;14.50;99.90;;;;;;5002049;28;20065;-83
2023/10/29 12:46:21;;;;;;;6.13;1.00;;;14.60;99.90;;;;;;4979343;28;20432;-85
2023/10/29 12:49:00;;;;;;;2.50;1.08;;;14.60;99.90;;;;;;4978548;28;20049;-84
2023/10/29 12:51:40;;;;;;;2.30;0.90;;;14.70;99.90;;;;;;4978962;28;20023;-83